»·PEaware :: N4MR CDJ4-KVSF

N4MR :: CDJ4-KVSF

FLIGHT INFORMATION

Flight Status: Arrived
Operator: Privately registered:
United States
More flights under this callsign
Pilot: Gavin B. (19371)
Aircraft: BEECH AIRCRAFT BARON
(BE58)
More flights by this aircraft type
Origin: CDJ4 Clearwater
Canada
Destination: KVSF Hartness State
United States
More flights between these airports :: More routes between these airports
Route: HUL V471 MLT V39 NEETS V496 LEB V542 BAUER
File this flight plan on PilotEdge
Remarks:
Altitude:
(Current/Filed)
8,000ft
Speed:
(Current/Filed)
160kts
Departed: 13-Sep-18 04:02 AM
Arrived: 13-Sep-18 05:56 AM
Distance/Time
Traveled:
315nm/1:54
Distance/Time
To Go:
Arrived

Flight Plot

Page will automatically refresh every two minutes.

Flight plan parsing failed; only flown route is shown


Map Options




Map Legend


Flown Route
Filed Route
Departure Airport
Arrival Airport
Navaid (VOR, NDB)
Fix

Horizontal Profiles

Position Reports

Time Latitude Longitude Heading Altitude Ground
Speed
13-Sep-18 04:03 46.710995 -66.821477 296 1294ft 2kts
13-Sep-18 04:04 46.720158 -66.856491 259 2200ft 107kts
13-Sep-18 04:05 46.694468 -66.868938 194 3688ft 110kts
13-Sep-18 04:06 46.669898 -66.893764 226 5070ft 110kts
13-Sep-18 04:07 46.648915 -66.925653 228 6423ft 110kts
13-Sep-18 04:08 46.627964 -66.957377 229 7688ft 109kts
13-Sep-18 04:09 46.602694 -66.995955 228 8009ft 164kts
13-Sep-18 04:10 46.568898 -67.046999 228 7997ft 181kts
13-Sep-18 04:11 46.533401 -67.100494 228 7995ft 185kts
13-Sep-18 04:12 46.497427 -67.154617 228 7995ft 187kts
13-Sep-18 04:13 46.461073 -67.209195 228 7995ft 188kts
13-Sep-18 04:14 46.424576 -67.263876 228 7995ft 189kts
13-Sep-18 04:15 46.388082 -67.318441 228 7995ft 188kts
13-Sep-18 04:16 46.351749 -67.372632 228 7995ft 187kts
13-Sep-18 04:17 46.315543 -67.426492 228 7995ft 186kts
13-Sep-18 04:18 46.279683 -67.479777 228 7993ft 186kts
13-Sep-18 04:19 46.243539 -67.533379 228 7996ft 187kts
13-Sep-18 04:20 46.207178 -67.587194 228 7995ft 187kts
13-Sep-18 04:21 46.170764 -67.640981 228 7995ft 187kts
13-Sep-18 04:22 46.135147 -67.693486 227 7996ft 188kts
13-Sep-18 04:23 46.098578 -67.747285 227 7996ft 188kts
13-Sep-18 04:24 46.061899 -67.801139 227 7996ft 188kts
13-Sep-18 04:25 46.025441 -67.854987 228 7996ft 188kts
13-Sep-18 04:26 45.989648 -67.909765 228 7996ft 188kts
13-Sep-18 04:27 45.953832 -67.964234 228 7996ft 188kts
13-Sep-18 04:28 45.917831 -68.018763 228 7996ft 188kts
13-Sep-18 04:29 45.882653 -68.071952 228 7994ft 188kts
13-Sep-18 04:30 45.846575 -68.126394 228 7994ft 187kts
13-Sep-18 04:31 45.810715 -68.180400 228 7995ft 187kts
13-Sep-18 04:32 45.774739 -68.234474 228 7995ft 187kts
13-Sep-18 04:33 45.738782 -68.288412 228 7995ft 187kts
13-Sep-18 04:34 45.702729 -68.342386 228 7995ft 187kts
13-Sep-18 04:35 45.666906 -68.395907 228 7995ft 187kts
13-Sep-18 04:36 45.630815 -68.449723 228 7995ft 187kts
13-Sep-18 04:37 45.594599 -68.503611 228 7995ft 187kts
13-Sep-18 04:38 45.553650 -68.549728 218 7995ft 189kts
13-Sep-18 04:39 45.511206 -68.593779 218 7995ft 189kts
13-Sep-18 04:40 45.468758 -68.637724 218 7995ft 189kts
13-Sep-18 04:41 45.427279 -68.680574 217 7996ft 189kts
13-Sep-18 04:42 45.384689 -68.724509 217 7996ft 189kts
13-Sep-18 04:43 45.342598 -68.767848 217 7996ft 189kts
13-Sep-18 04:44 45.299874 -68.811756 217 7996ft 189kts
13-Sep-18 04:45 45.257208 -68.855520 217 7996ft 189kts
13-Sep-18 04:46 45.214695 -68.899047 217 7996ft 189kts
13-Sep-18 04:47 45.171908 -68.942769 217 7996ft 189kts
13-Sep-18 04:48 45.129159 -68.986373 217 7996ft 189kts
13-Sep-18 04:49 45.086387 -69.029915 217 7996ft 189kts
13-Sep-18 04:50 45.043656 -69.073334 217 7996ft 189kts
13-Sep-18 04:51 45.001078 -69.116516 217 7996ft 188kts
13-Sep-18 04:52 44.958430 -69.159708 217 7978ft 189kts
13-Sep-18 04:53 44.915902 -69.202710 217 7977ft 188kts
13-Sep-18 04:54 44.874023 -69.244910 217 7976ft 187kts
13-Sep-18 04:55 44.831691 -69.287518 217 7976ft 187kts
13-Sep-18 04:56 44.789532 -69.329884 217 7976ft 187kts
13-Sep-18 04:57 44.747406 -69.372138 217 7976ft 187kts
13-Sep-18 04:58 44.705154 -69.414441 217 7976ft 187kts
13-Sep-18 04:59 44.662664 -69.456906 217 7976ft 187kts
13-Sep-18 05:00 44.620286 -69.499182 217 7976ft 187kts
13-Sep-18 05:01 44.577744 -69.541571 217 7976ft 187kts
13-Sep-18 05:02 44.535251 -69.583762 217 7976ft 187kts
13-Sep-18 05:03 44.499914 -69.618811 217 7976ft 187kts
13-Sep-18 05:04 44.451500 -69.666755 217 7977ft 187kts
13-Sep-18 05:05 44.408916 -69.708847 217 7977ft 188kts
13-Sep-18 05:06 44.375113 -69.742205 217 7977ft 188kts
13-Sep-18 05:07 44.333058 -69.783636 217 7977ft 188kts
13-Sep-18 05:08 44.293289 -69.845513 233 7979ft 184kts
13-Sep-18 05:09 44.267553 -69.892669 233 7977ft 182kts
13-Sep-18 05:10 44.237053 -69.948521 234 7977ft 180kts
13-Sep-18 05:11 44.206611 -70.004114 234 7977ft 181kts
13-Sep-18 05:12 44.170793 -70.069376 234 7977ft 183kts
13-Sep-18 05:13 44.144916 -70.116441 234 7979ft 184kts
13-Sep-18 05:14 44.113621 -70.173239 234 7982ft 185kts
13-Sep-18 05:15 44.082377 -70.229890 234 7982ft 185kts
13-Sep-18 05:16 44.050945 -70.286731 234 7980ft 185kts
13-Sep-18 05:17 44.019472 -70.343536 234 7977ft 186kts
13-Sep-18 05:18 43.988055 -70.400139 234 7977ft 186kts
13-Sep-18 05:19 43.956542 -70.456806 234 7977ft 186kts
13-Sep-18 05:20 43.925098 -70.513238 234 7993ft 186kts
13-Sep-18 05:21 43.893632 -70.569601 234 7986ft 186kts
13-Sep-18 05:22 43.862125 -70.625918 234 7986ft 186kts
13-Sep-18 05:23 43.831212 -70.681069 233 7990ft 186kts
13-Sep-18 05:24 43.799433 -70.737599 233 7996ft 186kts
13-Sep-18 05:25 43.765570 -70.791754 228 8002ft 186kts
13-Sep-18 05:26 43.729907 -70.843642 228 8004ft 186kts
13-Sep-18 05:27 43.694074 -70.895676 228 8004ft 187kts
13-Sep-18 05:28 43.658226 -70.947609 228 8002ft 187kts
13-Sep-18 05:29 43.622420 -70.999427 228 7997ft 187kts
13-Sep-18 05:30 43.586555 -71.051183 228 7989ft 187kts
13-Sep-18 05:31 43.550958 -71.102466 228 7988ft 186kts
13-Sep-18 05:32 43.518225 -71.156593 255 7988ft 182kts
13-Sep-18 05:33 43.524902 -71.224378 282 7996ft 180kts
13-Sep-18 05:34 43.535679 -71.291555 281 8003ft 179kts
13-Sep-18 05:35 43.546368 -71.358790 281 8003ft 179kts
13-Sep-18 05:36 43.556996 -71.425983 281 8003ft 179kts
13-Sep-18 05:37 43.567341 -71.491614 281 8003ft 179kts
13-Sep-18 05:38 43.577862 -71.558763 281 8003ft 179kts
13-Sep-18 05:39 43.588376 -71.626105 282 8003ft 179kts
13-Sep-18 05:40 43.598523 -71.691306 282 8004ft 180kts
13-Sep-18 05:41 43.609035 -71.758994 283 8004ft 181kts
13-Sep-18 05:42 43.619529 -71.827003 283 8004ft 181kts
13-Sep-18 05:43 43.629963 -71.894863 283 8004ft 181kts
13-Sep-18 05:44 43.640437 -71.963081 283 8004ft 182kts
13-Sep-18 05:45 43.650846 -72.031301 283 8004ft 182kts
13-Sep-18 05:46 43.661197 -72.099549 283 8004ft 182kts
13-Sep-18 05:47 43.671543 -72.168049 283 8004ft 182kts
13-Sep-18 05:48 43.661388 -72.231928 217 8003ft 188kts
13-Sep-18 05:49 43.620941 -72.277018 224 8004ft 187kts
13-Sep-18 05:50 43.582240 -72.325068 224 8004ft 187kts
13-Sep-18 05:51 43.543386 -72.373253 224 8004ft 188kts
13-Sep-18 05:52 43.500893 -72.426061 223 6532ft 230kts
13-Sep-18 05:53 43.452919 -72.485320 222 4758ft 230kts
13-Sep-18 05:54 43.400739 -72.526724 197 3839ft 218kts
13-Sep-18 05:55 43.350935 -72.559267 218 2182ft 180kts
13-Sep-18 05:56 43.324050 -72.547278 113 1407ft 112kts
13-Sep-18 05:57 43.341553 -72.518807 36 575ft 86kts
13-Sep-18 05:58 43.343172 -72.517254 216 567ft 18kts
13-Sep-18 05:59 43.342444 -72.520903 321 575ft 0kts

Navigation Log

Ident Type
Flight plan parsing failed, navigation log unavailable